Burns Municipal Airport
KBNO : now visible

Airfield :











YOU CAN JOIN US ON...

 
LOGIN :

Register | Disclaimer

   EN    FR    IT 

 









Legend :    VFR   Marginal VFR   IFR   Intensive IFR   Very Intensive IFR
Visi :
Ceiling :
>= 8 km
>= 3000ft
5 to 8 km
1000 to 3000 ft
1500m to 5 km
500 to 1000 ft
800 to 1500m
200 to 500 ft
< 800m
< 200 ft
Symbols :   Thunderstorms  Fog  Heavy snow  Heavy precipitations  Wind > 20 kt






- Airport Elevation : 4148 ft


KBNO - Burns Municipal

CURRENT METAR :
  • 070353Z AUTO 33022G31KT 10SM CLR 23/04 A2981 RMK AO2 PK WND 32031/0352 LTG DSNT SE AND S SLP054 T02280039 $

EXPIRED METARs :
  • 070253Z AUTO VRB03KT 10SM CLR 24/00 A2981 RMK AO2 SLP057 T02390000 $

TAF KBNO
Valid from the 07 at 04:00 until the 08 at 00:00 UTC


070415Z 0704/0724 29012G22KT P6SM VCSH BKN100
TEMPO 0704/0705 31020G30KT
FM071200 26011KT P6SM FEW100
FM071800 24013G20KT P6SM SCT100
KZLC FIR / North America



MET'MAP, your aeronautical weather chart ! - Copyright ORBIFLY December 2007 - Disclaimer

ORBIFLY MET'MAP TEAM :

Programming & Development : Alexandra Zaïnal
Concept & original design : Baudouin d'Aumeries
Assistance for programming : Marc-Olivier Méhu
Technical & hardware support : Manuel Goepfert

Contact : metmap@orbifly.com




SOURCES & CREDITS :

   NOAA       Earth
Advisory